createdAt,value
2017-09-11T00:00:07.169Z,99336.08
2017-09-11T00:02:35.480Z,99326.52
2017-09-11T00:05:03.775Z,99327.98
2017-09-11T00:07:32.312Z,99327.86
2017-09-11T00:10:01.074Z,99324.90
2017-09-11T00:12:30.200Z,99318.84
2017-09-11T00:14:58.558Z,99326.50
2017-09-11T00:17:27.642Z,99320.58
2017-09-11T00:19:56.718Z,99311.31
2017-09-11T00:22:25.972Z,99312.25
2017-09-11T00:24:54.269Z,99307.30
2017-09-11T00:27:22.551Z,99318.84
2017-09-11T00:29:50.846Z,99310.11
2017-09-11T00:32:19.142Z,99290.51
2017-09-11T00:34:47.466Z,99303.80
2017-09-11T00:37:15.761Z,99298.04
2017-09-11T00:39:44.830Z,99309.70
2017-09-11T00:42:13.151Z,99303.67
2017-09-11T00:44:42.221Z,99300.45
2017-09-11T00:47:11.911Z,99302.34
2017-09-11T00:49:40.229Z,99295.06
2017-09-11T00:52:09.305Z,99289.95
2017-09-11T00:54:37.638Z,99299.84
2017-09-11T00:57:05.958Z,99299.31
2017-09-11T00:59:34.555Z,99300.52
2017-09-11T01:02:02.881Z,99306.14
2017-09-11T01:04:33.627Z,99303.33
2017-09-11T01:07:03.662Z,99306.14
2017-09-11T01:09:32.007Z,99315.42
2017-09-11T01:12:01.075Z,99312.77
2017-09-11T01:14:29.409Z,99301.62
2017-09-11T01:16:57.711Z,99305.27
2017-09-11T01:19:26.700Z,99299.92
2017-09-11T01:21:55.028Z,99301.00
2017-09-11T01:24:23.354Z,99298.31
2017-09-11T01:26:51.727Z,99298.83
2017-09-11T01:29:20.071Z,99282.17
2017-09-11T01:31:48.411Z,99283.52
2017-09-11T01:34:18.379Z,99291.60
2017-09-11T01:36:46.715Z,99293.88
2017-09-11T01:39:16.330Z,99292.65
2017-09-11T01:41:44.660Z,99295.07
2017-09-11T01:44:15.154Z,99294.82
2017-09-11T01:46:43.630Z,99295.78
2017-09-11T01:49:11.977Z,99276.83
2017-09-11T01:51:41.031Z,99295.38
2017-09-11T01:54:09.381Z,99294.71
2017-09-11T01:56:37.696Z,99298.88
2017-09-11T01:59:06.000Z,99284.37
2017-09-11T02:01:34.346Z,99274.70
2017-09-11T02:04:02.730Z,99287.44
2017-09-11T02:06:31.069Z,99289.44
2017-09-11T02:09:00.207Z,99291.06
2017-09-11T02:11:28.513Z,99279.52
2017-09-11T02:13:56.818Z,99273.88
2017-09-11T02:16:25.184Z,99280.69
2017-09-11T02:18:54.332Z,99279.48
2017-09-11T02:21:22.673Z,99278.81
2017-09-11T02:23:51.014Z,99276.13
2017-09-11T02:26:19.410Z,99289.53
2017-09-11T02:28:47.755Z,99285.24
2017-09-11T02:31:17.646Z,99283.92
2017-09-11T02:33:45.955Z,99286.89
2017-09-11T02:36:15.019Z,99286.63
2017-09-11T02:38:43.319Z,99286.63
2017-09-11T02:41:11.665Z,99294.14
2017-09-11T02:43:40.008Z,99291.03
2017-09-11T02:46:09.155Z,99288.20
2017-09-11T02:48:37.474Z,99289.50
2017-09-11T02:51:06.599Z,99288.16
2017-09-11T02:53:34.916Z,99275.77
2017-09-11T02:56:05.060Z,99275.90
2017-09-11T02:58:33.386Z,99284.20
2017-09-11T03:01:02.479Z,99278.44
2017-09-11T03:03:31.588Z,99278.97
2017-09-11T03:05:59.979Z,99284.92
2017-09-11T03:08:29.920Z,99290.95
2017-09-11T03:10:58.446Z,99286.53
2017-09-11T03:13:27.688Z,99298.50
2017-09-11T03:15:56.641Z,99298.23
2017-09-11T03:18:24.966Z,99305.22
2017-09-11T03:20:53.871Z,99309.65
2017-09-11T03:23:22.207Z,99301.59
2017-09-11T03:25:50.552Z,99302.67
2017-09-11T03:28:19.068Z,99298.89
2017-09-11T03:30:47.402Z,99287.72
2017-09-11T03:33:15.749Z,99292.02
2017-09-11T03:35:44.093Z,99289.30
2017-09-11T03:38:12.633Z,99293.84
2017-09-11T03:40:41.702Z,99294.38
2017-09-11T03:43:10.350Z,99292.32
2017-09-11T03:45:38.655Z,99301.03
2017-09-11T03:48:06.998Z,99293.52
2017-09-11T03:50:35.384Z,99299.09
2017-09-11T03:53:03.685Z,99295.29
2017-09-11T03:55:31.987Z,99296.34
2017-09-11T03:58:00.337Z,99294.73
2017-09-11T04:00:29.464Z,99293.42
2017-09-11T04:02:57.799Z,99297.49
2017-09-11T04:05:26.878Z,99296.50
2017-09-11T04:07:55.986Z,99305.72
2017-09-11T04:10:25.069Z,99300.98
2017-09-11T04:12:53.386Z,99303.62
2017-09-11T04:15:22.459Z,99308.05
2017-09-11T04:17:51.578Z,99324.59
2017-09-11T04:20:19.963Z,99306.09
2017-09-11T04:22:49.035Z,99311.39
2017-09-11T04:25:17.419Z,99303.59
2017-09-11T04:27:45.723Z,99309.95
2017-09-11T04:30:16.396Z,99306.74
2017-09-11T04:32:44.706Z,99303.08
2017-09-11T04:35:13.078Z,99308.67
2017-09-11T04:37:41.421Z,99310.39
2017-09-11T04:40:09.739Z,99315.14
2017-09-11T04:42:38.131Z,99312.02
2017-09-11T04:45:06.452Z,99317.56
2017-09-11T04:47:35.762Z,99318.38
2017-09-11T04:50:05.669Z,99309.66
2017-09-11T04:52:34.735Z,99302.53
2017-09-11T04:55:03.038Z,99312.66
2017-09-11T04:57:32.222Z,99309.67
2017-09-11T05:00:01.602Z,99308.41
2017-09-11T05:02:29.904Z,99310.09
2017-09-11T05:04:58.204Z,99320.33
2017-09-11T05:07:27.332Z,99323.29
2017-09-11T05:09:56.413Z,99328.83
2017-09-11T05:12:24.779Z,99330.08
2017-09-11T05:14:53.098Z,99326.97
2017-09-11T05:17:22.198Z,99322.64
2017-09-11T05:19:50.686Z,99324.03
2017-09-11T05:22:19.723Z,99328.02
2017-09-11T05:24:48.569Z,99320.92
2017-09-11T05:27:17.767Z,99321.70
2017-09-11T05:29:46.068Z,99318.74
2017-09-11T05:32:15.163Z,99320.39
2017-09-11T05:34:44.228Z,99327.48
2017-09-11T05:37:12.576Z,99329.52
2017-09-11T05:39:40.934Z,99332.34
2017-09-11T05:42:10.007Z,99332.57
2017-09-11T05:44:38.456Z,99330.27
2017-09-11T05:47:06.801Z,99332.28
2017-09-11T05:49:35.104Z,99337.32
2017-09-11T05:52:03.395Z,99340.50
2017-09-11T05:54:31.716Z,99349.70
2017-09-11T05:57:00.039Z,99340.38
2017-09-11T05:59:28.353Z,99348.06
2017-09-11T06:01:56.652Z,99331.97
2017-09-11T06:04:25.743Z,99348.25
2017-09-11T06:06:54.049Z,99347.45
2017-09-11T06:09:23.167Z,99346.95
2017-09-11T06:11:52.655Z,99345.43
2017-09-11T06:14:20.951Z,99336.69
2017-09-11T06:16:50.033Z,99352.09
2017-09-11T06:19:19.219Z,99351.98
2017-09-11T06:21:47.676Z,99357.23
2017-09-11T06:24:16.804Z,99359.66
2017-09-11T06:26:46.780Z,99351.30
2017-09-11T06:29:16.296Z,99359.53
2017-09-11T06:31:44.894Z,99362.81
2017-09-11T06:34:13.360Z,99360.86
2017-09-11T06:37:10.047Z,99361.28
2017-09-11T06:39:38.400Z,99368.06
2017-09-11T06:42:06.857Z,99365.39
2017-09-11T06:44:35.380Z,99367.03
2017-09-11T06:47:03.666Z,99369.05
2017-09-11T06:49:32.500Z,99362.00
2017-09-11T06:52:00.788Z,99368.82
2017-09-11T06:54:29.332Z,99368.30
2017-09-11T06:56:57.623Z,99369.37
2017-09-11T06:59:26.423Z,99374.48
2017-09-11T07:01:55.046Z,99365.53
2017-09-11T07:04:23.783Z,99362.47
2017-09-11T07:06:52.242Z,99365.20
2017-09-11T07:09:21.526Z,99362.28
2017-09-11T07:11:49.806Z,99380.52
2017-09-11T07:14:18.143Z,99363.39
2017-09-11T07:16:46.439Z,99377.91
2017-09-11T07:19:14.737Z,99368.03
2017-09-11T07:21:43.257Z,99375.07
2017-09-11T07:24:11.919Z,99373.55
2017-09-11T07:26:41.184Z,99371.74
2017-09-11T07:29:10.306Z,99365.84
2017-09-11T07:31:39.620Z,99373.92
2017-09-11T07:34:07.993Z,99372.80
2017-09-11T07:36:36.306Z,99380.77
2017-09-11T07:39:04.887Z,99377.61
2017-09-11T07:41:33.167Z,99373.98
2017-09-11T07:44:01.849Z,99370.88
2017-09-11T07:46:30.166Z,99368.33
2017-09-11T07:48:59.365Z,99368.48
2017-09-11T07:51:27.759Z,99369.73
2017-09-11T07:53:57.048Z,99370.30
2017-09-11T07:56:27.190Z,99380.92
2017-09-11T07:58:55.500Z,99382.78
2017-09-11T08:01:24.005Z,99388.67
2017-09-11T08:03:52.377Z,99389.52
2017-09-11T08:06:20.714Z,99403.73
2017-09-11T08:08:49.004Z,99406.46
2017-09-11T08:11:17.326Z,99400.08
2017-09-11T08:13:45.691Z,99392.02
2017-09-11T08:16:14.257Z,99395.34
2017-09-11T08:18:42.545Z,99398.62
2017-09-11T08:21:11.247Z,99388.91
2017-09-11T08:23:39.624Z,99390.89
2017-09-11T08:26:08.072Z,99393.89
2017-09-11T08:28:36.353Z,99400.92
2017-09-11T08:31:04.960Z,99400.41
2017-09-11T08:33:33.329Z,99391.92
2017-09-11T08:36:02.375Z,99387.24
2017-09-11T08:38:30.695Z,99401.88
2017-09-11T08:40:58.970Z,99394.59
2017-09-11T08:43:27.346Z,99391.20
2017-09-11T08:45:55.726Z,99394.02
2017-09-11T08:48:24.265Z,99387.66
2017-09-11T08:50:52.798Z,99392.31
2017-09-11T08:53:21.303Z,99396.31
2017-09-11T08:55:50.935Z,99404.75
2017-09-11T08:58:19.215Z,99415.56
2017-09-11T09:00:47.763Z,99400.30
2017-09-11T09:03:16.139Z,99410.09
2017-09-11T09:05:44.672Z,99403.80
2017-09-11T09:08:13.779Z,99402.11
2017-09-11T09:10:42.268Z,99408.23
2017-09-11T09:13:10.693Z,99404.47
2017-09-11T09:15:39.891Z,99395.16
2017-09-11T09:18:08.419Z,99396.56
2017-09-11T09:20:36.858Z,99416.74
2017-09-11T09:23:05.282Z,99394.20
2017-09-11T09:25:33.686Z,99390.41
2017-09-11T09:28:02.496Z,99402.21
2017-09-11T09:30:31.404Z,99395.86
2017-09-11T09:33:00.058Z,99396.41
2017-09-11T09:35:28.713Z,99387.54
2017-09-11T09:37:57.525Z,99383.18
2017-09-11T09:40:26.638Z,99380.06
2017-09-11T09:42:55.405Z,99379.11
2017-09-11T09:45:23.827Z,99371.58
2017-09-11T09:47:52.375Z,99380.14
2017-09-11T09:50:20.995Z,99390.31
2017-09-11T09:52:49.518Z,99383.31
2017-09-11T09:55:18.016Z,99384.76
2017-09-11T09:57:46.571Z,99389.63
2017-09-11T10:00:15.065Z,99388.41
2017-09-11T10:02:43.499Z,99392.56
2017-09-11T10:05:11.987Z,99385.75
2017-09-11T10:07:42.086Z,99391.69
2017-09-11T10:10:10.530Z,99388.80
2017-09-11T10:12:38.960Z,99387.66
2017-09-11T10:15:07.629Z,99384.97
2017-09-11T10:17:36.211Z,99377.27
2017-09-11T10:20:04.513Z,99386.70
2017-09-11T10:22:32.830Z,99376.16
2017-09-11T10:25:01.385Z,99386.67
2017-09-11T10:27:29.714Z,99383.52
2017-09-11T10:29:58.285Z,99387.56
2017-09-11T10:32:27.612Z,99392.03
2017-09-11T10:34:55.907Z,99381.09
2017-09-11T10:37:24.224Z,99378.59
2017-09-11T10:39:52.623Z,99373.73
2017-09-11T10:42:21.026Z,99368.05
2017-09-11T10:44:49.390Z,99381.80
2017-09-11T10:47:17.875Z,99360.30
2017-09-11T10:49:46.271Z,99369.11
2017-09-11T10:52:15.430Z,99396.20
2017-09-11T10:54:44.617Z,99360.41
2017-09-11T10:57:12.959Z,99360.74
2017-09-11T10:59:42.300Z,99357.05
2017-09-11T11:02:10.751Z,99357.69
2017-09-11T11:04:39.091Z,99364.52
2017-09-11T11:07:07.446Z,99367.94
2017-09-11T11:09:35.834Z,99365.63
2017-09-11T11:12:04.961Z,99382.85
2017-09-11T11:14:33.274Z,99369.95
2017-09-11T11:17:02.392Z,99380.24
2017-09-11T11:19:30.815Z,99366.64
2017-09-11T11:22:00.155Z,99373.12
2017-09-11T11:24:28.774Z,99351.61
2017-09-11T11:26:57.108Z,99372.02
2017-09-11T11:29:25.550Z,99355.30
2017-09-11T11:31:53.843Z,99373.45
2017-09-11T11:34:22.183Z,99381.38
2017-09-11T11:36:51.285Z,99379.67
2017-09-11T11:39:19.855Z,99379.22
2017-09-11T11:41:48.166Z,99388.00
2017-09-11T11:44:16.694Z,99386.44
2017-09-11T11:46:45.053Z,99393.23
2017-09-11T11:49:13.456Z,99396.42
2017-09-11T11:51:41.811Z,99395.36
2017-09-11T11:54:10.099Z,99400.58
2017-09-11T11:56:38.779Z,99409.98
2017-09-11T11:59:07.126Z,99408.51
2017-09-11T12:01:36.342Z,99406.91
2017-09-11T12:04:05.480Z,99399.47
2017-09-11T12:06:33.884Z,99398.82
2017-09-11T12:09:02.294Z,99397.38
2017-09-11T12:11:31.361Z,99416.69
2017-09-11T12:13:59.938Z,99429.25
2017-09-11T12:16:28.320Z,99429.12
2017-09-11T12:18:56.745Z,99432.61
2017-09-11T12:21:25.106Z,99418.59
2017-09-11T12:23:54.218Z,99431.30
2017-09-11T12:26:23.190Z,99429.47
2017-09-11T12:28:51.556Z,99425.22
2017-09-11T12:31:19.892Z,99417.20
2017-09-11T12:33:48.787Z,99415.13
2017-09-11T12:36:17.857Z,99414.64
2017-09-11T12:38:46.185Z,99422.04
2017-09-11T12:41:15.379Z,99421.55
2017-09-11T12:43:44.614Z,99425.72
2017-09-11T12:46:12.971Z,99421.72
2017-09-11T12:48:42.268Z,99428.38
2017-09-11T12:51:11.420Z,99435.39
2017-09-11T12:53:39.922Z,99428.38
2017-09-11T12:56:08.224Z,99432.95
2017-09-11T12:58:37.295Z,99436.23
2017-09-11T13:01:05.696Z,99440.19
2017-09-11T13:03:34.090Z,99433.09
2017-09-11T13:06:03.330Z,99445.19
2017-09-11T13:08:31.736Z,99445.60
2017-09-11T13:11:00.192Z,99437.66
2017-09-11T13:13:28.474Z,99434.17
2017-09-11T13:15:56.753Z,99433.58
2017-09-11T13:18:25.313Z,99426.80
2017-09-11T13:20:54.449Z,99454.05
2017-09-11T13:23:22.882Z,99447.81
2017-09-11T13:25:51.728Z,99439.64
2017-09-11T13:28:20.022Z,99463.62
2017-09-11T13:30:48.298Z,99443.33
2017-09-11T13:33:16.715Z,99473.14
2017-09-11T13:35:46.040Z,99452.27
2017-09-11T13:38:14.324Z,99447.72
2017-09-11T13:40:42.887Z,99453.34
2017-09-11T13:43:11.219Z,99447.18
2017-09-11T13:45:40.514Z,99444.08
2017-09-11T13:48:08.910Z,99435.69
2017-09-11T13:50:37.392Z,99439.55
2017-09-11T13:53:05.750Z,99443.37
2017-09-11T13:55:34.118Z,99450.71
2017-09-11T13:58:02.587Z,99441.70
2017-09-11T14:00:31.237Z,99435.39
2017-09-11T14:02:59.537Z,99438.89
2017-09-11T14:05:27.958Z,99434.45
2017-09-11T14:07:56.338Z,99440.62
2017-09-11T14:10:24.734Z,99440.38
2017-09-11T14:12:53.372Z,99432.43
2017-09-11T14:15:21.772Z,99461.77
2017-09-11T14:17:50.815Z,99456.77
2017-09-11T14:20:19.939Z,99439.09
2017-09-11T14:22:48.236Z,99457.28
2017-09-11T14:25:16.533Z,99440.02
2017-09-11T14:27:44.901Z,99444.14
2017-09-11T14:30:13.366Z,99444.72
2017-09-11T14:32:41.852Z,99452.03
2017-09-11T14:35:10.148Z,99442.53
2017-09-11T14:37:38.640Z,99450.41
2017-09-11T14:40:06.926Z,99435.75
2017-09-11T14:42:35.253Z,99435.14
2017-09-11T14:45:04.878Z,99442.77
2017-09-11T14:47:34.056Z,99441.67
2017-09-11T14:50:02.547Z,99456.03
2017-09-11T14:52:30.904Z,99448.09
2017-09-11T14:54:59.249Z,99452.97
2017-09-11T14:57:27.660Z,99455.31
2017-09-11T14:59:55.939Z,99453.86
2017-09-11T15:02:24.357Z,99440.48
2017-09-11T15:04:52.688Z,99458.38
2017-09-11T15:07:20.999Z,99468.59
2017-09-11T15:09:49.290Z,99460.19
2017-09-11T15:12:17.699Z,99471.73
2017-09-11T15:14:46.927Z,99486.44
2017-09-11T15:17:15.981Z,99476.33
2017-09-11T15:19:44.527Z,99475.16
2017-09-11T15:22:12.932Z,99478.44
2017-09-11T15:24:41.227Z,99478.80
2017-09-11T15:27:09.750Z,99475.37
2017-09-11T15:29:38.847Z,99475.57
2017-09-11T15:32:07.408Z,99479.88
2017-09-11T15:34:35.696Z,99477.45
2017-09-11T15:37:04.045Z,99482.84
2017-09-11T15:39:32.386Z,99476.33
2017-09-11T15:42:00.681Z,99471.25
2017-09-11T15:44:29.004Z,99470.94
2017-09-11T15:46:58.144Z,99475.37
2017-09-11T15:49:28.128Z,99470.70
2017-09-11T15:51:56.784Z,99465.02
2017-09-11T15:54:25.224Z,99463.07
2017-09-11T15:56:54.271Z,99466.22
2017-09-11T15:59:22.924Z,99450.86
2017-09-11T16:01:52.061Z,99460.15
2017-09-11T16:04:20.543Z,99460.95
2017-09-11T16:06:49.467Z,99467.28
2017-09-11T16:09:17.859Z,99466.75
2017-09-11T16:11:47.007Z,99455.70
2017-09-11T16:14:15.362Z,99456.10
2017-09-11T16:16:45.102Z,99460.27
2017-09-11T16:19:13.461Z,99458.67
2017-09-11T16:21:42.551Z,99460.00
2017-09-11T16:24:12.046Z,99473.19
2017-09-11T16:26:41.055Z,99465.93
2017-09-11T16:29:10.416Z,99469.03
2017-09-11T16:31:39.696Z,99462.02
2017-09-11T16:34:08.077Z,99462.02
2017-09-11T16:36:36.583Z,99483.13
2017-09-11T16:39:05.346Z,99469.42
2017-09-11T16:41:33.640Z,99466.30
2017-09-11T16:44:02.096Z,99474.59
2017-09-11T16:46:31.314Z,99480.47
2017-09-11T16:49:00.534Z,99486.78
2017-09-11T16:51:30.303Z,99491.70
2017-09-11T16:53:58.793Z,99492.77
2017-09-11T16:56:28.291Z,99486.96
2017-09-11T16:58:57.529Z,99478.58
2017-09-11T17:01:25.940Z,99488.09
2017-09-11T17:03:54.403Z,99473.42
2017-09-11T17:06:24.250Z,99479.28
2017-09-11T17:09:28.772Z,99487.45
2017-09-11T17:11:57.465Z,99485.84
2017-09-11T17:14:25.963Z,99459.66
2017-09-11T17:16:54.935Z,99474.25
2017-09-11T17:19:23.515Z,99483.50
2017-09-11T17:21:53.866Z,99457.83
2017-09-11T17:24:22.359Z,99484.83
2017-09-11T17:26:50.886Z,99486.70
2017-09-11T17:29:19.421Z,99489.11
2017-09-11T17:31:48.214Z,99483.48
2017-09-11T17:34:16.821Z,99482.52
2017-09-11T17:36:46.359Z,99492.08
2017-09-11T17:39:14.901Z,99478.61
2017-09-11T17:41:44.665Z,99491.88
2017-09-11T17:44:13.343Z,99482.34
2017-09-11T17:46:41.763Z,99461.39
2017-09-11T17:49:11.151Z,99461.91
2017-09-11T17:51:39.946Z,99487.39
2017-09-11T17:54:08.655Z,99482.95
2017-09-11T17:56:38.232Z,99496.09
2017-09-11T17:59:06.730Z,99518.66
2017-09-11T18:01:35.564Z,99526.45
2017-09-11T18:04:04.069Z,99537.22
2017-09-11T18:06:32.794Z,99544.05
2017-09-11T18:09:01.131Z,99543.92
2017-09-11T18:11:29.691Z,99551.04
2017-09-11T18:13:58.172Z,99551.04
2017-09-11T18:16:28.856Z,99544.61
2017-09-11T18:18:57.655Z,99554.48
2017-09-11T18:21:26.472Z,99573.47
2017-09-11T18:23:55.013Z,99589.67
2017-09-11T18:26:23.607Z,99587.71
2017-09-11T18:28:52.129Z,99585.88
2017-09-11T18:31:20.488Z,99587.53
2017-09-11T18:33:49.148Z,99600.94
2017-09-11T18:36:17.607Z,99600.55
2017-09-11T18:38:47.660Z,99602.42
2017-09-11T18:41:16.473Z,99605.69
2017-09-11T18:43:45.115Z,99608.16
2017-09-11T18:46:14.635Z,99612.32
2017-09-11T18:48:43.442Z,99613.42
2017-09-11T18:51:11.871Z,99617.64
2017-09-11T18:53:40.619Z,99622.39
2017-09-11T18:56:10.545Z,99619.59
2017-09-11T18:58:38.946Z,99622.67
2017-09-11T19:01:08.109Z,99626.86
2017-09-11T19:03:37.308Z,99638.67
2017-09-11T19:06:05.751Z,99634.17
2017-09-11T19:08:34.471Z,99639.65
2017-09-11T19:11:04.007Z,99638.84
2017-09-11T19:13:32.513Z,99643.27
2017-09-11T19:16:01.027Z,99645.21
2017-09-11T19:18:29.326Z,99647.45
2017-09-11T19:20:58.392Z,99642.70
2017-09-11T19:23:26.688Z,99632.21
2017-09-11T19:25:54.984Z,99632.12
2017-09-11T19:28:23.275Z,99634.36
2017-09-11T19:30:52.335Z,99634.66
2017-09-11T19:33:20.634Z,99642.98
2017-09-11T19:35:48.927Z,99644.56
2017-09-11T19:38:17.974Z,99639.23
2017-09-11T19:40:46.251Z,99641.05
2017-09-11T19:43:14.527Z,99645.64
2017-09-11T19:45:42.823Z,99650.50
2017-09-11T19:48:11.145Z,99658.36
2017-09-11T19:50:39.446Z,99647.03
2017-09-11T19:53:08.490Z,99648.16
2017-09-11T19:55:36.791Z,99656.79
2017-09-11T19:58:05.069Z,99658.17
2017-09-11T20:00:34.120Z,99665.23
2017-09-11T20:03:02.424Z,99666.09
2017-09-11T20:05:30.705Z,99669.64
2017-09-11T20:07:58.992Z,99657.80
2017-09-11T20:10:27.279Z,99654.42
2017-09-11T20:12:55.556Z,99658.97
2017-09-11T20:15:24.611Z,99657.63
2017-09-11T20:17:53.646Z,99666.25
2017-09-11T20:20:21.932Z,99681.61
2017-09-11T20:22:50.216Z,99685.97
2017-09-11T20:25:18.503Z,99701.17
2017-09-11T20:27:46.797Z,99693.55
2017-09-11T20:30:15.076Z,99689.77
2017-09-11T20:32:43.357Z,99685.30
2017-09-11T20:35:11.654Z,99687.78
2017-09-11T20:37:39.930Z,99696.05
2017-09-11T20:40:08.210Z,99694.88
2017-09-11T20:42:36.491Z,99691.63
2017-09-11T20:45:04.794Z,99690.94
2017-09-11T20:47:33.837Z,99688.84
2017-09-11T20:50:02.168Z,99700.86
2017-09-11T20:52:31.229Z,99699.42
2017-09-11T20:54:59.527Z,99702.72
2017-09-11T20:57:27.806Z,99704.39
2017-09-11T20:59:56.094Z,99712.66
2017-09-11T21:02:24.383Z,99708.20
2017-09-11T21:04:52.667Z,99707.96
2017-09-11T21:07:21.717Z,99705.28
2017-09-11T21:09:50.002Z,99708.50
2017-09-11T21:12:18.283Z,99711.47
2017-09-11T21:14:46.574Z,99703.19
2017-09-11T21:17:14.854Z,99701.89
2017-09-11T21:19:43.139Z,99705.22
2017-09-11T21:22:11.430Z,99707.97
2017-09-11T21:24:39.711Z,99716.75
2017-09-11T21:27:07.990Z,99716.14
2017-09-11T21:29:36.266Z,99712.59
2017-09-11T21:32:04.566Z,99721.66
2017-09-11T21:34:32.841Z,99711.79
2017-09-11T21:37:01.131Z,99702.98
2017-09-11T21:39:30.195Z,99713.58
2017-09-11T21:41:58.475Z,99727.27
2017-09-11T21:44:26.762Z,99733.00
2017-09-11T21:46:55.050Z,99734.74
2017-09-11T21:49:23.336Z,99736.48
2017-09-11T21:51:51.619Z,99730.12
2017-09-11T21:54:19.893Z,99739.95
2017-09-11T21:56:48.185Z,99736.34
2017-09-11T21:59:16.460Z,99754.85
2017-09-11T22:01:44.747Z,99743.48
2017-09-11T22:04:13.024Z,99752.86
2017-09-11T22:06:42.798Z,99748.20
2017-09-11T22:09:11.087Z,99750.30
2017-09-11T22:11:39.366Z,99749.25
2017-09-11T22:14:07.643Z,99751.89
2017-09-11T22:16:35.930Z,99752.42
2017-09-11T22:19:04.210Z,99753.14
2017-09-11T22:21:32.491Z,99752.86
2017-09-11T22:24:00.779Z,99757.33
2017-09-11T22:26:29.058Z,99753.88
2017-09-11T22:28:57.355Z,99764.43
2017-09-11T22:31:25.631Z,99766.59
2017-09-11T22:33:53.903Z,99767.36
2017-09-11T22:36:22.174Z,99752.73
2017-09-11T22:38:50.466Z,99769.62
2017-09-11T22:41:18.741Z,99765.48
2017-09-11T22:43:47.021Z,99772.59
2017-09-11T22:46:15.327Z,99773.65
2017-09-11T22:48:43.629Z,99782.22
2017-09-11T22:51:11.910Z,99772.30
2017-09-11T22:53:40.190Z,99778.64
2017-09-11T22:56:09.252Z,99789.89
2017-09-11T22:58:37.537Z,99779.00
2017-09-11T23:01:05.831Z,99785.06
2017-09-11T23:03:34.135Z,99784.48
2017-09-11T23:06:02.424Z,99792.75
2017-09-11T23:08:31.470Z,99788.56
2017-09-11T23:10:59.758Z,99795.67
2017-09-11T23:13:28.034Z,99793.88
2017-09-11T23:15:56.330Z,99796.68
2017-09-11T23:18:24.617Z,99802.04
2017-09-11T23:20:52.909Z,99804.59
2017-09-11T23:23:21.195Z,99802.49
2017-09-11T23:25:49.487Z,99803.71
2017-09-11T23:28:18.544Z,99799.81
2017-09-11T23:30:47.604Z,99806.56
2017-09-11T23:33:15.883Z,99798.17
2017-09-11T23:35:44.168Z,99801.55
2017-09-11T23:38:12.457Z,99806.50
2017-09-11T23:40:40.748Z,99805.35
2017-09-11T23:43:09.043Z,99805.74
2017-09-11T23:45:37.338Z,99810.98
2017-09-11T23:48:05.618Z,99815.19
2017-09-11T23:50:33.908Z,99808.82
2017-09-11T23:53:02.201Z,99816.91
2017-09-11T23:55:30.495Z,99818.53
2017-09-11T23:57:59.539Z,99822.03
